sensor_id;sensor_type;location;lat;lon;timestamp;temperature;humidity
33645;DHT22;19986;48.190;16.366;2023-07-28T00:00:14;24.30;87.70
33645;DHT22;19986;48.190;16.366;2023-07-28T00:02:40;24.30;88.10
33645;DHT22;19986;48.190;16.366;2023-07-28T00:05:06;24.30;88.20
33645;DHT22;19986;48.190;16.366;2023-07-28T00:07:31;24.30;88.50
33645;DHT22;19986;48.190;16.366;2023-07-28T00:09:59;24.30;88.50
33645;DHT22;19986;48.190;16.366;2023-07-28T00:12:25;24.30;88.70
33645;DHT22;19986;48.190;16.366;2023-07-28T00:14:51;24.30;88.80
33645;DHT22;19986;48.190;16.366;2023-07-28T00:17:17;24.30;89.00
33645;DHT22;19986;48.190;16.366;2023-07-28T00:19:42;24.30;89.30
33645;DHT22;19986;48.190;16.366;2023-07-28T00:22:08;24.30;89.60
33645;DHT22;19986;48.190;16.366;2023-07-28T00:24:34;24.30;89.60
33645;DHT22;19986;48.190;16.366;2023-07-28T00:27:00;24.30;89.90
33645;DHT22;19986;48.190;16.366;2023-07-28T00:29:26;24.30;89.90
33645;DHT22;19986;48.190;16.366;2023-07-28T00:31:51;24.20;90.00
33645;DHT22;19986;48.190;16.366;2023-07-28T00:34:18;24.20;90.10
33645;DHT22;19986;48.190;16.366;2023-07-28T00:36:44;24.20;90.30
33645;DHT22;19986;48.190;16.366;2023-07-28T00:39:10;24.10;90.30
33645;DHT22;19986;48.190;16.366;2023-07-28T00:41:35;24.10;90.40
33645;DHT22;19986;48.190;16.366;2023-07-28T00:44:01;24.20;90.40
33645;DHT22;19986;48.190;16.366;2023-07-28T00:46:27;24.20;90.40
33645;DHT22;19986;48.190;16.366;2023-07-28T00:48:53;24.20;90.50
33645;DHT22;19986;48.190;16.366;2023-07-28T00:51:20;24.20;90.50
33645;DHT22;19986;48.190;16.366;2023-07-28T00:53:46;24.20;90.60
33645;DHT22;19986;48.190;16.366;2023-07-28T00:56:14;24.20;90.60
33645;DHT22;19986;48.190;16.366;2023-07-28T00:58:40;24.20;90.60
33645;DHT22;19986;48.190;16.366;2023-07-28T01:01:06;24.30;90.70
33645;DHT22;19986;48.190;16.366;2023-07-28T01:03:32;24.30;90.80
33645;DHT22;19986;48.190;16.366;2023-07-28T01:08:53;24.20;91.10
33645;DHT22;19986;48.190;16.366;2023-07-28T01:11:21;24.10;91.30
33645;DHT22;19986;48.190;16.366;2023-07-28T01:13:47;24.10;91.30
33645;DHT22;19986;48.190;16.366;2023-07-28T01:16:13;24.10;91.40
33645;DHT22;19986;48.190;16.366;2023-07-28T01:18:38;24.20;91.30
33645;DHT22;19986;48.190;16.366;2023-07-28T01:21:08;24.20;91.50
33645;DHT22;19986;48.190;16.366;2023-07-28T01:23:55;24.10;91.60
33645;DHT22;19986;48.190;16.366;2023-07-28T01:26:36;24.10;91.60
33645;DHT22;19986;48.190;16.366;2023-07-28T01:29:03;24.20;91.70
33645;DHT22;19986;48.190;16.366;2023-07-28T01:31:29;24.10;91.80
33645;DHT22;19986;48.190;16.366;2023-07-28T01:33:55;24.10;92.20
33645;DHT22;19986;48.190;16.366;2023-07-28T01:36:21;24.10;92.30
33645;DHT22;19986;48.190;16.366;2023-07-28T01:38:48;24.00;92.40
33645;DHT22;19986;48.190;16.366;2023-07-28T01:41:14;24.00;92.50
33645;DHT22;19986;48.190;16.366;2023-07-28T01:43:41;24.10;92.60
33645;DHT22;19986;48.190;16.366;2023-07-28T01:46:08;24.00;92.70
33645;DHT22;19986;48.190;16.366;2023-07-28T01:48:35;24.00;92.80
33645;DHT22;19986;48.190;16.366;2023-07-28T01:51:01;24.10;92.80
33645;DHT22;19986;48.190;16.366;2023-07-28T01:53:27;24.10;92.90
33645;DHT22;19986;48.190;16.366;2023-07-28T01:55:54;24.20;92.90
33645;DHT22;19986;48.190;16.366;2023-07-28T01:58:21;24.10;93.00
33645;DHT22;19986;48.190;16.366;2023-07-28T02:00:48;24.10;93.20
33645;DHT22;19986;48.190;16.366;2023-07-28T02:03:14;24.10;93.20
33645;DHT22;19986;48.190;16.366;2023-07-28T02:05:40;24.10;93.30
33645;DHT22;19986;48.190;16.366;2023-07-28T02:08:05;24.00;93.50
33645;DHT22;19986;48.190;16.366;2023-07-28T02:10:32;24.00;93.60
33645;DHT22;19986;48.190;16.366;2023-07-28T02:12:58;24.00;93.70
33645;DHT22;19986;48.190;16.366;2023-07-28T02:15:25;24.00;93.90
33645;DHT22;19986;48.190;16.366;2023-07-28T02:17:51;24.00;93.90
33645;DHT22;19986;48.190;16.366;2023-07-28T02:20:18;24.00;94.10
33645;DHT22;19986;48.190;16.366;2023-07-28T02:22:45;24.00;94.10
33645;DHT22;19986;48.190;16.366;2023-07-28T02:25:11;24.00;94.20
33645;DHT22;19986;48.190;16.366;2023-07-28T02:27:38;24.00;94.20
33645;DHT22;19986;48.190;16.366;2023-07-28T02:30:05;24.00;94.20
33645;DHT22;19986;48.190;16.366;2023-07-28T02:32:36;23.90;94.30
33645;DHT22;19986;48.190;16.366;2023-07-28T02:35:03;23.90;94.30
33645;DHT22;19986;48.190;16.366;2023-07-28T02:37:29;23.80;94.40
33645;DHT22;19986;48.190;16.366;2023-07-28T02:39:55;23.80;94.40
33645;DHT22;19986;48.190;16.366;2023-07-28T02:42:21;23.80;94.50
33645;DHT22;19986;48.190;16.366;2023-07-28T02:44:49;23.80;94.50
33645;DHT22;19986;48.190;16.366;2023-07-28T02:47:15;23.80;94.50
33645;DHT22;19986;48.190;16.366;2023-07-28T02:49:41;23.80;94.50
33645;DHT22;19986;48.190;16.366;2023-07-28T02:52:07;23.80;94.50
33645;DHT22;19986;48.190;16.366;2023-07-28T02:54:33;23.80;94.50
33645;DHT22;19986;48.190;16.366;2023-07-28T02:56:59;23.80;94.50
33645;DHT22;19986;48.190;16.366;2023-07-28T02:59:24;23.80;94.50
33645;DHT22;19986;48.190;16.366;2023-07-28T03:01:50;23.80;94.40
33645;DHT22;19986;48.190;16.366;2023-07-28T03:04:18;23.80;94.50
33645;DHT22;19986;48.190;16.366;2023-07-28T03:06:47;23.90;94.40
33645;DHT22;19986;48.190;16.366;2023-07-28T03:09:13;23.90;94.50
33645;DHT22;19986;48.190;16.366;2023-07-28T03:11:39;23.90;94.50
33645;DHT22;19986;48.190;16.366;2023-07-28T03:14:05;23.90;94.50
33645;DHT22;19986;48.190;16.366;2023-07-28T03:16:31;23.90;94.50
33645;DHT22;19986;48.190;16.366;2023-07-28T03:18:56;23.80;94.40
33645;DHT22;19986;48.190;16.366;2023-07-28T03:21:22;23.80;94.20
33645;DHT22;19986;48.190;16.366;2023-07-28T03:23:48;23.80;94.20
33645;DHT22;19986;48.190;16.366;2023-07-28T03:26:14;23.70;94.50
33645;DHT22;19986;48.190;16.366;2023-07-28T03:28:40;23.80;94.10
33645;DHT22;19986;48.190;16.366;2023-07-28T03:31:05;23.70;94.10
33645;DHT22;19986;48.190;16.366;2023-07-28T03:33:31;23.80;94.10
33645;DHT22;19986;48.190;16.366;2023-07-28T03:35:57;23.70;94.00
33645;DHT22;19986;48.190;16.366;2023-07-28T03:38:23;23.80;93.90
33645;DHT22;19986;48.190;16.366;2023-07-28T03:40:50;23.80;93.70
33645;DHT22;19986;48.190;16.366;2023-07-28T03:43:16;23.80;93.50
33645;DHT22;19986;48.190;16.366;2023-07-28T03:45:42;23.80;93.40
33645;DHT22;19986;48.190;16.366;2023-07-28T03:48:07;23.80;93.30
33645;DHT22;19986;48.190;16.366;2023-07-28T03:50:33;23.80;93.20
33645;DHT22;19986;48.190;16.366;2023-07-28T03:52:59;23.80;93.20
33645;DHT22;19986;48.190;16.366;2023-07-28T03:55:26;23.80;93.10
33645;DHT22;19986;48.190;16.366;2023-07-28T03:57:52;23.80;93.00
33645;DHT22;19986;48.190;16.366;2023-07-28T04:00:18;23.70;93.00
33645;DHT22;19986;48.190;16.366;2023-07-28T04:02:43;23.70;93.00
33645;DHT22;19986;48.190;16.366;2023-07-28T04:05:09;23.70;92.90
33645;DHT22;19986;48.190;16.366;2023-07-28T04:07:35;23.70;92.90
33645;DHT22;19986;48.190;16.366;2023-07-28T04:10:01;23.70;92.80
33645;DHT22;19986;48.190;16.366;2023-07-28T04:12:27;23.70;92.70
33645;DHT22;19986;48.190;16.366;2023-07-28T04:14:52;23.70;92.60
33645;DHT22;19986;48.190;16.366;2023-07-28T04:17:18;23.60;92.60
33645;DHT22;19986;48.190;16.366;2023-07-28T04:19:44;23.60;92.60
33645;DHT22;19986;48.190;16.366;2023-07-28T04:22:10;23.60;92.60
33645;DHT22;19986;48.190;16.366;2023-07-28T04:24:35;23.70;92.50
33645;DHT22;19986;48.190;16.366;2023-07-28T04:27:01;23.80;92.50
33645;DHT22;19986;48.190;16.366;2023-07-28T04:29:27;23.80;92.40
33645;DHT22;19986;48.190;16.366;2023-07-28T04:31:53;23.90;92.40
33645;DHT22;19986;48.190;16.366;2023-07-28T04:34:20;23.90;92.30
33645;DHT22;19986;48.190;16.366;2023-07-28T04:36:46;24.00;92.10
33645;DHT22;19986;48.190;16.366;2023-07-28T04:39:12;24.00;92.10
33645;DHT22;19986;48.190;16.366;2023-07-28T04:41:38;24.10;92.00
33645;DHT22;19986;48.190;16.366;2023-07-28T04:44:04;24.20;91.90
33645;DHT22;19986;48.190;16.366;2023-07-28T04:46:30;24.30;91.80
33645;DHT22;19986;48.190;16.366;2023-07-28T04:48:56;24.40;91.70
33645;DHT22;19986;48.190;16.366;2023-07-28T04:51:22;24.40;91.60
33645;DHT22;19986;48.190;16.366;2023-07-28T04:53:48;24.50;91.50
33645;DHT22;19986;48.190;16.366;2023-07-28T04:56:14;24.40;91.30
33645;DHT22;19986;48.190;16.366;2023-07-28T04:58:40;24.50;91.40
33645;DHT22;19986;48.190;16.366;2023-07-28T05:01:05;24.50;91.40
33645;DHT22;19986;48.190;16.366;2023-07-28T05:03:34;24.50;91.30
33645;DHT22;19986;48.190;16.366;2023-07-28T05:06:00;24.40;91.30
33645;DHT22;19986;48.190;16.366;2023-07-28T05:08:28;24.40;91.50
33645;DHT22;19986;48.190;16.366;2023-07-28T05:10:56;24.30;91.70
33645;DHT22;19986;48.190;16.366;2023-07-28T05:13:22;24.10;91.90
33645;DHT22;19986;48.190;16.366;2023-07-28T05:15:47;24.10;92.10
33645;DHT22;19986;48.190;16.366;2023-07-28T05:18:13;24.10;92.30
33645;DHT22;19986;48.190;16.366;2023-07-28T05:20:39;24.10;92.30
33645;DHT22;19986;48.190;16.366;2023-07-28T05:23:05;24.00;92.20
33645;DHT22;19986;48.190;16.366;2023-07-28T05:25:31;24.10;92.30
33645;DHT22;19986;48.190;16.366;2023-07-28T05:27:56;24.20;92.30
33645;DHT22;19986;48.190;16.366;2023-07-28T05:30:22;24.30;91.90
33645;DHT22;19986;48.190;16.366;2023-07-28T05:32:48;24.30;91.60
33645;DHT22;19986;48.190;16.366;2023-07-28T05:35:15;24.20;91.60
33645;DHT22;19986;48.190;16.366;2023-07-28T05:37:41;24.20;91.60
33645;DHT22;19986;48.190;16.366;2023-07-28T05:40:07;24.30;91.60
33645;DHT22;19986;48.190;16.366;2023-07-28T05:42:33;24.20;91.50
33645;DHT22;19986;48.190;16.366;2023-07-28T05:44:59;24.30;91.60
33645;DHT22;19986;48.190;16.366;2023-07-28T05:47:25;24.30;91.60
33645;DHT22;19986;48.190;16.366;2023-07-28T05:49:51;24.40;91.50
33645;DHT22;19986;48.190;16.366;2023-07-28T05:52:20;24.40;91.40
33645;DHT22;19986;48.190;16.366;2023-07-28T05:54:48;24.40;91.30
33645;DHT22;19986;48.190;16.366;2023-07-28T05:57:14;24.40;91.30
33645;DHT22;19986;48.190;16.366;2023-07-28T05:59:40;24.50;91.30
33645;DHT22;19986;48.190;16.366;2023-07-28T06:02:06;24.60;91.10
33645;DHT22;19986;48.190;16.366;2023-07-28T06:04:32;24.70;90.90
33645;DHT22;19986;48.190;16.366;2023-07-28T06:06:57;24.80;90.90
33645;DHT22;19986;48.190;16.366;2023-07-28T06:09:23;24.90;91.30
33645;DHT22;19986;48.190;16.366;2023-07-28T06:11:49;25.00;90.90
33645;DHT22;19986;48.190;16.366;2023-07-28T06:14:15;25.00;90.70
33645;DHT22;19986;48.190;16.366;2023-07-28T06:16:41;25.10;90.80
33645;DHT22;19986;48.190;16.366;2023-07-28T06:19:07;25.20;90.50
33645;DHT22;19986;48.190;16.366;2023-07-28T06:21:34;25.20;90.30
33645;DHT22;19986;48.190;16.366;2023-07-28T06:23:59;25.40;90.20
33645;DHT22;19986;48.190;16.366;2023-07-28T06:26:25;25.50;90.10
33645;DHT22;19986;48.190;16.366;2023-07-28T06:28:51;25.50;90.10
33645;DHT22;19986;48.190;16.366;2023-07-28T06:31:17;25.70;90.20
33645;DHT22;19986;48.190;16.366;2023-07-28T06:33:43;25.90;90.00
33645;DHT22;19986;48.190;16.366;2023-07-28T06:36:09;26.10;89.80
33645;DHT22;19986;48.190;16.366;2023-07-28T06:38:36;26.30;89.10
33645;DHT22;19986;48.190;16.366;2023-07-28T06:41:02;26.30;88.90
33645;DHT22;19986;48.190;16.366;2023-07-28T06:43:28;26.50;89.20
33645;DHT22;19986;48.190;16.366;2023-07-28T06:45:56;26.60;88.80
33645;DHT22;19986;48.190;16.366;2023-07-28T06:48:22;26.70;88.60
33645;DHT22;19986;48.190;16.366;2023-07-28T06:50:48;26.80;88.30
33645;DHT22;19986;48.190;16.366;2023-07-28T06:53:13;26.80;88.10
33645;DHT22;19986;48.190;16.366;2023-07-28T06:55:39;26.90;87.60
33645;DHT22;19986;48.190;16.366;2023-07-28T06:58:06;26.90;87.10
33645;DHT22;19986;48.190;16.366;2023-07-28T07:00:32;26.90;87.90
33645;DHT22;19986;48.190;16.366;2023-07-28T07:03:03;26.90;87.90
33645;DHT22;19986;48.190;16.366;2023-07-28T07:05:30;26.90;87.50
33645;DHT22;19986;48.190;16.366;2023-07-28T07:07:57;26.90;87.80
33645;DHT22;19986;48.190;16.366;2023-07-28T07:10:24;26.80;87.70
33645;DHT22;19986;48.190;16.366;2023-07-28T07:12:50;26.80;87.70
33645;DHT22;19986;48.190;16.366;2023-07-28T07:15:16;26.90;87.10
33645;DHT22;19986;48.190;16.366;2023-07-28T07:17:42;26.90;87.70
33645;DHT22;19986;48.190;16.366;2023-07-28T07:20:11;26.90;86.60
33645;DHT22;19986;48.190;16.366;2023-07-28T07:22:39;26.90;86.40
33645;DHT22;19986;48.190;16.366;2023-07-28T07:25:05;27.00;85.60
33645;DHT22;19986;48.190;16.366;2023-07-28T07:27:32;27.00;85.50
33645;DHT22;19986;48.190;16.366;2023-07-28T07:29:58;27.10;85.20
33645;DHT22;19986;48.190;16.366;2023-07-28T07:32:24;27.10;85.20
33645;DHT22;19986;48.190;16.366;2023-07-28T07:34:50;27.20;84.60
33645;DHT22;19986;48.190;16.366;2023-07-28T07:37:16;27.20;84.90
33645;DHT22;19986;48.190;16.366;2023-07-28T07:39:42;27.30;84.70
33645;DHT22;19986;48.190;16.366;2023-07-28T07:42:10;27.30;84.50
33645;DHT22;19986;48.190;16.366;2023-07-28T07:44:37;27.30;84.40
33645;DHT22;19986;48.190;16.366;2023-07-28T07:47:12;27.30;84.40
33645;DHT22;19986;48.190;16.366;2023-07-28T07:49:40;27.40;84.20
33645;DHT22;19986;48.190;16.366;2023-07-28T07:52:07;27.50;84.50
33645;DHT22;19986;48.190;16.366;2023-07-28T07:54:33;27.60;84.20
33645;DHT22;19986;48.190;16.366;2023-07-28T07:56:59;27.70;84.20
33645;DHT22;19986;48.190;16.366;2023-07-28T07:59:25;27.70;84.40
33645;DHT22;19986;48.190;16.366;2023-07-28T08:01:53;27.80;84.50
33645;DHT22;19986;48.190;16.366;2023-07-28T08:04:19;27.90;84.20
33645;DHT22;19986;48.190;16.366;2023-07-28T08:06:47;28.00;83.90
33645;DHT22;19986;48.190;16.366;2023-07-28T08:09:13;28.00;84.20
33645;DHT22;19986;48.190;16.366;2023-07-28T08:11:39;28.00;84.40
33645;DHT22;19986;48.190;16.366;2023-07-28T08:14:05;28.10;84.50
33645;DHT22;19986;48.190;16.366;2023-07-28T08:16:31;28.30;84.70
33645;DHT22;19986;48.190;16.366;2023-07-28T08:18:57;28.40;84.50
33645;DHT22;19986;48.190;16.366;2023-07-28T08:21:23;28.50;84.70
33645;DHT22;19986;48.190;16.366;2023-07-28T08:23:49;28.60;84.60
33645;DHT22;19986;48.190;16.366;2023-07-28T08:26:14;28.60;84.80
33645;DHT22;19986;48.190;16.366;2023-07-28T08:28:40;28.70;85.00
33645;DHT22;19986;48.190;16.366;2023-07-28T08:31:06;28.70;85.00
33645;DHT22;19986;48.190;16.366;2023-07-28T08:33:32;28.70;85.30
33645;DHT22;19986;48.190;16.366;2023-07-28T08:35:58;28.90;85.60
33645;DHT22;19986;48.190;16.366;2023-07-28T08:38:24;28.90;85.20
33645;DHT22;19986;48.190;16.366;2023-07-28T08:40:49;28.90;85.30
33645;DHT22;19986;48.190;16.366;2023-07-28T08:43:15;28.90;85.50
33645;DHT22;19986;48.190;16.366;2023-07-28T08:45:41;29.00;85.50
33645;DHT22;19986;48.190;16.366;2023-07-28T08:48:07;29.00;85.40
33645;DHT22;19986;48.190;16.366;2023-07-28T08:50:33;29.00;85.30
33645;DHT22;19986;48.190;16.366;2023-07-28T08:52:59;29.00;85.30
33645;DHT22;19986;48.190;16.366;2023-07-28T08:55:25;29.10;85.30
33645;DHT22;19986;48.190;16.366;2023-07-28T08:57:51;29.10;85.20
33645;DHT22;19986;48.190;16.366;2023-07-28T09:00:17;29.20;85.30
33645;DHT22;19986;48.190;16.366;2023-07-28T09:02:43;29.30;85.20
33645;DHT22;19986;48.190;16.366;2023-07-28T09:05:22;29.40;84.60
33645;DHT22;19986;48.190;16.366;2023-07-28T09:07:50;29.40;84.20
33645;DHT22;19986;48.190;16.366;2023-07-28T09:10:18;29.50;84.50
33645;DHT22;19986;48.190;16.366;2023-07-28T09:12:50;29.60;84.30
33645;DHT22;19986;48.190;16.366;2023-07-28T09:15:17;29.80;84.00
33645;DHT22;19986;48.190;16.366;2023-07-28T09:17:46;30.00;83.90
33645;DHT22;19986;48.190;16.366;2023-07-28T09:20:14;30.60;83.90
33645;DHT22;19986;48.190;16.366;2023-07-28T09:22:41;32.00;81.50
33645;DHT22;19986;48.190;16.366;2023-07-28T09:25:14;33.60;77.30
33645;DHT22;19986;48.190;16.366;2023-07-28T09:27:41;35.30;74.90
33645;DHT22;19986;48.190;16.366;2023-07-28T09:30:14;36.90;72.80
33645;DHT22;19986;48.190;16.366;2023-07-28T09:32:47;38.40;69.30
33645;DHT22;19986;48.190;16.366;2023-07-28T09:35:14;39.10;66.90
33645;DHT22;19986;48.190;16.366;2023-07-28T09:37:42;39.40;65.80
33645;DHT22;19986;48.190;16.366;2023-07-28T09:40:10;39.90;65.00
33645;DHT22;19986;48.190;16.366;2023-07-28T09:42:41;40.30;63.50
33645;DHT22;19986;48.190;16.366;2023-07-28T09:45:08;40.40;63.00
33645;DHT22;19986;48.190;16.366;2023-07-28T09:47:36;40.50;62.30
33645;DHT22;19986;48.190;16.366;2023-07-28T09:50:08;40.30;62.10
33645;DHT22;19986;48.190;16.366;2023-07-28T09:52:49;40.30;62.00
33645;DHT22;19986;48.190;16.366;2023-07-28T09:55:17;40.80;61.80
33645;DHT22;19986;48.190;16.366;2023-07-28T09:57:51;41.40;61.50
33645;DHT22;19986;48.190;16.366;2023-07-28T10:00:18;41.70;60.80
33645;DHT22;19986;48.190;16.366;2023-07-28T10:02:46;42.20;60.10
33645;DHT22;19986;48.190;16.366;2023-07-28T10:05:12;42.30;59.70
33645;DHT22;19986;48.190;16.366;2023-07-28T10:07:42;41.90;59.50
33645;DHT22;19986;48.190;16.366;2023-07-28T10:10:11;41.40;60.00
33645;DHT22;19986;48.190;16.366;2023-07-28T10:15:07;41.60;59.90
33645;DHT22;19986;48.190;16.366;2023-07-28T10:17:37;41.60;59.60
33645;DHT22;19986;48.190;16.366;2023-07-28T10:20:07;41.60;59.70
33645;DHT22;19986;48.190;16.366;2023-07-28T10:22:53;41.90;59.60
33645;DHT22;19986;48.190;16.366;2023-07-28T10:25:23;41.80;59.20
33645;DHT22;19986;48.190;16.366;2023-07-28T10:27:50;42.00;59.30
33645;DHT22;19986;48.190;16.366;2023-07-28T10:30:17;41.90;59.20
33645;DHT22;19986;48.190;16.366;2023-07-28T10:32:45;41.80;59.30
33645;DHT22;19986;48.190;16.366;2023-07-28T10:37:44;42.10;59.60
33645;DHT22;19986;48.190;16.366;2023-07-28T10:40:28;42.20;59.30
33645;DHT22;19986;48.190;16.366;2023-07-28T10:42:59;41.90;59.20
33645;DHT22;19986;48.190;16.366;2023-07-28T10:45:26;41.50;59.70
33645;DHT22;19986;48.190;16.366;2023-07-28T10:47:53;41.40;60.00
33645;DHT22;19986;48.190;16.366;2023-07-28T10:50:32;41.50;59.70
33645;DHT22;19986;48.190;16.366;2023-07-28T10:52:58;41.00;60.00
33645;DHT22;19986;48.190;16.366;2023-07-28T10:55:26;39.90;61.10
33645;DHT22;19986;48.190;16.366;2023-07-28T10:57:53;39.20;62.80
33645;DHT22;19986;48.190;16.366;2023-07-28T11:00:20;39.00;63.20
33645;DHT22;19986;48.190;16.366;2023-07-28T11:02:54;38.10;64.50
33645;DHT22;19986;48.190;16.366;2023-07-28T11:05:21;37.20;66.10
33645;DHT22;19986;48.190;16.366;2023-07-28T11:07:51;36.80;67.40
33645;DHT22;19986;48.190;16.366;2023-07-28T11:10:18;37.10;67.00
33645;DHT22;19986;48.190;16.366;2023-07-28T11:12:45;37.40;66.60
33645;DHT22;19986;48.190;16.366;2023-07-28T11:15:13;36.90;67.10
33645;DHT22;19986;48.190;16.366;2023-07-28T11:17:50;37.10;68.20
33645;DHT22;19986;48.190;16.366;2023-07-28T11:20:17;37.60;66.60
33645;DHT22;19986;48.190;16.366;2023-07-28T11:22:45;37.70;67.10
33645;DHT22;19986;48.190;16.366;2023-07-28T11:25:12;38.60;66.20
33645;DHT22;19986;48.190;16.366;2023-07-28T11:27:39;39.20;64.50
33645;DHT22;19986;48.190;16.366;2023-07-28T11:30:08;39.10;64.70
33645;DHT22;19986;48.190;16.366;2023-07-28T11:32:38;39.50;64.30
33645;DHT22;19986;48.190;16.366;2023-07-28T11:35:06;39.90;63.40
33645;DHT22;19986;48.190;16.366;2023-07-28T11:37:33;39.70;62.90
33645;DHT22;19986;48.190;16.366;2023-07-28T11:40:04;39.50;63.30
33645;DHT22;19986;48.190;16.366;2023-07-28T11:42:34;39.30;63.90
33645;DHT22;19986;48.190;16.366;2023-07-28T11:45:02;39.30;64.30
33645;DHT22;19986;48.190;16.366;2023-07-28T11:47:28;39.30;63.90
33645;DHT22;19986;48.190;16.366;2023-07-28T11:49:56;39.20;63.60
33645;DHT22;19986;48.190;16.366;2023-07-28T11:52:29;39.50;63.90
33645;DHT22;19986;48.190;16.366;2023-07-28T11:54:54;39.60;62.40
33645;DHT22;19986;48.190;16.366;2023-07-28T11:57:21;39.20;62.70
33645;DHT22;19986;48.190;16.366;2023-07-28T11:59:47;39.20;62.60
33645;DHT22;19986;48.190;16.366;2023-07-28T12:02:13;38.90;62.90
33645;DHT22;19986;48.190;16.366;2023-07-28T12:04:40;38.50;62.90
33645;DHT22;19986;48.190;16.366;2023-07-28T12:07:11;38.30;63.60
33645;DHT22;19986;48.190;16.366;2023-07-28T12:12:16;38.00;64.60
33645;DHT22;19986;48.190;16.366;2023-07-28T12:14:42;38.00;64.70
33645;DHT22;19986;48.190;16.366;2023-07-28T12:17:28;38.00;64.60
33645;DHT22;19986;48.190;16.366;2023-07-28T12:20:06;37.60;64.80
33645;DHT22;19986;48.190;16.366;2023-07-28T12:22:41;37.50;65.90
33645;DHT22;19986;48.190;16.366;2023-07-28T12:25:08;37.40;66.50
33645;DHT22;19986;48.190;16.366;2023-07-28T12:27:34;37.60;66.70
33645;DHT22;19986;48.190;16.366;2023-07-28T12:30:01;37.00;67.40
33645;DHT22;19986;48.190;16.366;2023-07-28T12:32:28;36.50;68.30
33645;DHT22;19986;48.190;16.366;2023-07-28T12:34:54;36.20;68.70
33645;DHT22;19986;48.190;16.366;2023-07-28T12:37:20;35.70;69.50
33645;DHT22;19986;48.190;16.366;2023-07-28T12:39:47;35.50;69.90
33645;DHT22;19986;48.190;16.366;2023-07-28T12:42:14;35.10;70.80
33645;DHT22;19986;48.190;16.366;2023-07-28T12:44:42;34.70;71.70
33645;DHT22;19986;48.190;16.366;2023-07-28T12:47:08;34.80;71.80
33645;DHT22;19986;48.190;16.366;2023-07-28T12:49:34;34.60;71.90
33645;DHT22;19986;48.190;16.366;2023-07-28T12:52:01;34.50;71.80
33645;DHT22;19986;48.190;16.366;2023-07-28T12:54:28;34.30;72.50
33645;DHT22;19986;48.190;16.366;2023-07-28T12:56:54;33.90;73.30
33645;DHT22;19986;48.190;16.366;2023-07-28T12:59:20;33.30;74.50
33645;DHT22;19986;48.190;16.366;2023-07-28T13:01:46;32.70;75.60
33645;DHT22;19986;48.190;16.366;2023-07-28T13:04:12;32.40;76.60
33645;DHT22;19986;48.190;16.366;2023-07-28T13:06:38;32.20;77.20
33645;DHT22;19986;48.190;16.366;2023-07-28T13:09:07;32.00;77.80
33645;DHT22;19986;48.190;16.366;2023-07-28T13:11:51;31.90;78.20
33645;DHT22;19986;48.190;16.366;2023-07-28T13:14:17;31.80;78.50
33645;DHT22;19986;48.190;16.366;2023-07-28T13:16:43;31.80;79.00
33645;DHT22;19986;48.190;16.366;2023-07-28T13:19:10;31.70;79.30
33645;DHT22;19986;48.190;16.366;2023-07-28T13:21:37;31.50;80.90
33645;DHT22;19986;48.190;16.366;2023-07-28T13:24:03;31.20;82.00
33645;DHT22;19986;48.190;16.366;2023-07-28T13:26:30;31.00;82.60
33645;DHT22;19986;48.190;16.366;2023-07-28T13:28:56;30.90;82.40
33645;DHT22;19986;48.190;16.366;2023-07-28T13:31:24;31.00;82.50
33645;DHT22;19986;48.190;16.366;2023-07-28T13:33:51;31.10;82.50
33645;DHT22;19986;48.190;16.366;2023-07-28T13:36:17;31.00;82.90
33645;DHT22;19986;48.190;16.366;2023-07-28T13:38:42;31.10;82.80
33645;DHT22;19986;48.190;16.366;2023-07-28T13:41:08;31.30;82.90
33645;DHT22;19986;48.190;16.366;2023-07-28T13:43:34;31.40;83.10
33645;DHT22;19986;48.190;16.366;2023-07-28T13:46:02;31.40;82.60
33645;DHT22;19986;48.190;16.366;2023-07-28T13:48:30;31.50;82.40
33645;DHT22;19986;48.190;16.366;2023-07-28T13:50:57;31.60;82.10
33645;DHT22;19986;48.190;16.366;2023-07-28T13:53:23;31.80;81.60
33645;DHT22;19986;48.190;16.366;2023-07-28T13:55:50;32.10;79.80
33645;DHT22;19986;48.190;16.366;2023-07-28T13:58:20;32.10;79.20
33645;DHT22;19986;48.190;16.366;2023-07-28T14:00:46;32.10;78.30
33645;DHT22;19986;48.190;16.366;2023-07-28T14:03:12;32.10;78.40
33645;DHT22;19986;48.190;16.366;2023-07-28T14:05:39;32.10;78.50
33645;DHT22;19986;48.190;16.366;2023-07-28T14:08:05;32.10;78.10
33645;DHT22;19986;48.190;16.366;2023-07-28T14:10:31;31.90;78.10
33645;DHT22;19986;48.190;16.366;2023-07-28T14:12:59;31.80;78.50
33645;DHT22;19986;48.190;16.366;2023-07-28T14:15:24;31.90;78.70
33645;DHT22;19986;48.190;16.366;2023-07-28T14:17:50;31.80;78.60
33645;DHT22;19986;48.190;16.366;2023-07-28T14:20:16;31.80;78.70
33645;DHT22;19986;48.190;16.366;2023-07-28T14:22:42;32.00;78.50
33645;DHT22;19986;48.190;16.366;2023-07-28T14:25:08;32.10;78.30
33645;DHT22;19986;48.190;16.366;2023-07-28T14:27:34;32.00;78.10
33645;DHT22;19986;48.190;16.366;2023-07-28T14:30:00;32.00;78.30
33645;DHT22;19986;48.190;16.366;2023-07-28T14:32:26;31.90;78.20
33645;DHT22;19986;48.190;16.366;2023-07-28T14:34:52;31.80;78.50
33645;DHT22;19986;48.190;16.366;2023-07-28T14:37:20;31.70;78.90
33645;DHT22;19986;48.190;16.366;2023-07-28T14:39:46;31.50;79.30
33645;DHT22;19986;48.190;16.366;2023-07-28T14:42:12;31.60;79.60
33645;DHT22;19986;48.190;16.366;2023-07-28T14:44:38;31.60;79.80
33645;DHT22;19986;48.190;16.366;2023-07-28T14:47:04;31.70;79.90
33645;DHT22;19986;48.190;16.366;2023-07-28T14:49:30;31.60;80.00
33645;DHT22;19986;48.190;16.366;2023-07-28T14:51:56;31.60;80.60
33645;DHT22;19986;48.190;16.366;2023-07-28T14:54:22;31.50;81.00
33645;DHT22;19986;48.190;16.366;2023-07-28T14:56:48;31.60;81.10
33645;DHT22;19986;48.190;16.366;2023-07-28T14:59:14;31.60;81.10
33645;DHT22;19986;48.190;16.366;2023-07-28T15:01:41;31.60;81.10
33645;DHT22;19986;48.190;16.366;2023-07-28T15:04:07;31.50;81.10
33645;DHT22;19986;48.190;16.366;2023-07-28T15:06:33;31.50;81.10
33645;DHT22;19986;48.190;16.366;2023-07-28T15:08:59;31.40;81.30
33645;DHT22;19986;48.190;16.366;2023-07-28T15:11:26;31.20;81.80
33645;DHT22;19986;48.190;16.366;2023-07-28T15:13:53;31.10;82.00
33645;DHT22;19986;48.190;16.366;2023-07-28T15:16:19;31.10;82.20
33645;DHT22;19986;48.190;16.366;2023-07-28T15:18:45;31.00;82.80
33645;DHT22;19986;48.190;16.366;2023-07-28T15:21:11;30.80;83.10
33645;DHT22;19986;48.190;16.366;2023-07-28T15:23:37;30.70;83.40